• Join FlightAware (Why Join?)
  • Login
  • US Flag 
10:38AM EDT


 

Airport Tracker/Info


-or-


 

Live Flight TrackerFlight Track Log ✈ GGN7280 ✈ 27-May-2013 ✈ CYYZ - KALB

Flight Track Log - Related Links

Times and Time Zones

All times are in EDT time to prevent confusion due to time zone crossing. See the GGN7280 flight status page for this flight to view local times or setup timezone preferences in your user account.

Time Position Orientation Groundspeed Altitude Reporting Facility
EDT Latitude Longitude Course Direction KTS MPH feet Rate Location/Type
09:29AM 43.6500 -79.6167 55° Northeast 20 23 500  Level Toronto Center
09:30AM 43.6667 -79.5833 55° Northeast 80 92 1,100 1,020 Climbing Toronto Center
09:31AM 43.6667 -79.5167 90° East 180 207 2,600 1,260 Climbing Toronto Center
09:32AM 43.6667 -79.4500 90° East 210 242 3,700 1,020 Climbing Toronto Center
09:33AM 43.6333 -79.3833 125° Southeast 220 253 4,700 900 Climbing Toronto Center
09:34AM 43.5833 -79.2833 125° Southeast 230 265 5,600 840 Climbing Toronto Center
09:35AM 43.5500 -79.2167 125° Southeast 230 265 6,400 780 Climbing Toronto Center
09:36AM 43.5000 -79.1500 136° Southeast 250 288 7,200 780 Climbing Toronto Center
09:37AM 43.4667 -79.0833 125° Southeast 250 288 8,000 840 Climbing Toronto Center
09:38AM 43.4667 -78.9833 90° East 240 276 8,900 900 Climbing Toronto Center
09:39AM 43.4500 -78.8833 103° East 250 288 9,800 840 Climbing Toronto Center
09:40AM 43.4333 -78.7833 103° East 250 288 10,600 840 Climbing Toronto Center
09:41AM 43.4333 -78.7000 90° East 250 288 11,500 900 Climbing Toronto Center
09:42AM 43.4167 -78.6000 103° East 260 299 12,500 900 Climbing Toronto Center
09:43AM 43.4181 -78.5742 86° East 248 285 13,000 1,140 Climbing Cleveland Center
09:44AM 43.4081 -78.4831 99° East 248 285 14,400 1,320 Climbing Cleveland Center
09:45AM 43.3981 -78.3919 99° East 248 285 15,700 1,260 Climbing Cleveland Center
09:46AM 43.3881 -78.3008 99° East 248 285 17,000 1,200 Climbing Cleveland Center
09:47AM 43.3758 -78.2100 100° East 242 278 18,200 1,320 Climbing Cleveland Center
09:48AM 43.3614 -78.1161 102° East 237 273 19,700 1,380 Climbing Cleveland Center
09:49AM 43.3511 -78.0253 99° East 237 273 21,000 1,200 Climbing Cleveland Center
09:50AM 43.3428 -77.9314 97° East 242 278 22,100 840 Climbing Cleveland Center
09:51AM 43.3278 -77.8292 101° East 249 287 22,700 360 Climbing Cleveland Center
09:52AM 43.3128 -77.7214 101° East 272 313 22,900 60 Climbing Cleveland Center
09:53AM 43.2975 -77.6108 101° East 284 327 22,900  Level Cleveland Center
09:54AM 43.2819 -77.4947 100° East 299 344 22,900  Level Cleveland Center
09:56AM 43.2489 -77.2156 99° East 299 344 23,000  Climbing Boston Center
09:57AM 43.2347 -77.1006 100° East 299 344 22,900  Descending Boston Center
09:58AM 43.2186 -76.9822 101° East 304 350 23,000  Climbing Boston Center
09:59AM 43.2047 -76.8617 99° East 310 357 23,000  Level Boston Center
10:00AM 43.1861 -76.7433 102° East 315 362 23,000 -60 Level Boston Center
10:01AM 43.1500 -76.5667 106° East 320 368 22,900 -60 Descending Toronto Center
10:02AM 43.1333 -76.4500 101° East 320 368 22,900  Level Toronto Center
10:03AM 43.1167 -76.3500 103° East 320 368 23,000  Climbing Toronto Center
10:04AM 43.1239 -76.2694 83° East 315 362 23,000 -360 Level Boston Center
10:05AM 43.1050 -76.1458 102° East 320 368 22,300 -1,080 Descending Boston Center
10:06AM 43.0881 -76.0256 101° East 320 368 20,900 -1,500 Descending Boston Center
10:07AM 43.0706 -75.9136 102° East 309 356 19,400 -1,440 Descending Boston Center
10:08AM 43.0406 -75.8067 111° Southeast 304 350 18,100 -960 Descending Boston Center
10:09AM 43.0336 -75.6869 94° East 304 350 17,500 -720 Descending Boston Center
10:10AM 43.0181 -75.5725 100° East 299 344 16,700 -780 Descending Boston Center
10:11AM 42.9981 -75.4581 103° East 299 344 15,900 -840 Descending Boston Center
10:12AM 42.9808 -75.3208 100° East 299 344 14,900 -960 Descending Boston Center
10:13AM 42.9650 -75.2039 100° East 299 344 14,000 -960 Descending Boston Center
10:14AM 42.9489 -75.0925 101° East 299 344 13,000 -1,080 Descending Boston Center
10:15AM 42.9378 -75.0267 103° East 317 365 12,500 -900 Descending Boston Center
10:15AM 42.9306 -74.9811 102° East 299 344 12,100 -780 Descending Boston Center
10:16AM 42.9144 -74.8642 101° East 299 344 11,300 -600 Descending Boston Center
10:17AM 42.8939 -74.7414 103° East 294 338 11,000 -180 Descending Boston Center
10:18AM 42.8733 -74.6300 104° East 287 330 11,000  Level Boston Center
10:19AM 42.8606 -74.5306 100° East 283 326 11,000 -180 Level Boston Center
10:20AM 42.8439 -74.4194 102° East 284 327 10,700 -660 Descending Boston Center
10:21AM 42.8289 -74.3172 101° East 282 325 9,700 -1,200 Descending Boston Center
10:22AM 42.8058 -74.1947 104° East 299 344 8,300 -1,380 Descending Boston Center
10:23AM 42.7675 -74.1117 122° Southeast 289 333 7,000 -1,320 Descending Boston Center
10:24AM 42.7353 -74.0317 119° Southeast 289 333 5,900 -1,260 Descending Boston Center
10:25AM 42.7011 -73.9403 117° Southeast 278 320 4,500 -1,380 Descending Boston Center
10:26AM 42.6769 -73.8606 112° Southeast 254 292 3,200 -840 Descending Boston Center
10:27AM 42.6675 -73.7925 101° East 242 278 2,700 -420 Descending Boston Center
10:31AM 42.6432 -73.6791 106° East  Level FlightAware Approximate